createdAt,value
2023-04-09T00:05:02.009Z,94.1
2023-04-09T00:10:33.702Z,94.12
2023-04-09T00:16:05.352Z,94.81
2023-04-09T00:21:37.099Z,95.16
2023-04-09T00:27:08.704Z,94.76
2023-04-09T00:32:40.446Z,95.7
2023-04-09T00:38:18.623Z,95.75
2023-04-09T00:43:50.288Z,95.89
2023-04-09T00:49:22.075Z,96.03
2023-04-09T00:54:53.807Z,95.29
2023-04-09T01:00:25.524Z,96.16
2023-04-09T01:06:08.030Z,96.46
2023-04-09T01:11:28.960Z,97.32
2023-04-09T01:17:00.795Z,97.15
2023-04-09T01:22:32.443Z,97.0
2023-04-09T01:28:04.798Z,97.14
2023-04-09T01:33:35.774Z,97.43
2023-04-09T01:39:12.024Z,96.63
2023-04-09T01:44:43.784Z,96.89
2023-04-09T01:50:15.428Z,97.46
2023-04-09T01:55:47.144Z,97.64
2023-04-09T02:01:18.994Z,97.77
2023-04-09T02:06:50.600Z,97.91
2023-04-09T02:12:22.312Z,98.62
2023-04-09T02:17:54.317Z,98.35
2023-04-09T02:23:26.865Z,98.37
2023-04-09T02:28:57.531Z,98.0
2023-04-09T02:34:29.096Z,97.72
2023-04-09T02:40:05.319Z,97.91
2023-04-09T02:45:37.037Z,98.0
2023-04-09T02:51:08.788Z,97.63
2023-04-09T02:56:40.593Z,97.63
2023-04-09T03:02:12.554Z,97.51
2023-04-09T03:07:44.546Z,97.41
2023-04-09T03:13:15.612Z,97.25
2023-04-09T03:18:47.374Z,97.18
2023-04-09T03:24:19.185Z,97.71
2023-04-09T03:29:50.916Z,98.17
2023-04-09T03:35:22.844Z,98.55
2023-04-09T03:40:58.842Z,99.08
2023-04-09T03:46:30.620Z,99.32
2023-04-09T03:52:02.105Z,99.5
2023-04-09T03:57:34.009Z,99.73
2023-04-09T04:03:06.276Z,99.55
2023-04-09T04:08:37.394Z,99.21
2023-04-09T04:14:09.258Z,99.26
2023-04-09T04:19:40.714Z,98.91
2023-04-09T04:25:12.584Z,99.73
2023-04-09T04:30:44.251Z,100.0
2023-04-09T04:36:15.790Z,100.0
2023-04-09T04:41:52.071Z,100.0
2023-04-09T04:47:24.018Z,100.0
2023-04-09T04:52:55.550Z,100.0
2023-04-09T04:58:27.343Z,100.0
2023-04-09T05:03:59.458Z,100.0
2023-04-09T05:09:30.696Z,100.0
2023-04-09T05:15:02.525Z,100.0
2023-04-09T05:20:34.147Z,100.0
2023-04-09T05:26:05.934Z,100.0
2023-04-09T05:31:37.690Z,100.0
2023-04-09T05:37:09.999Z,100.0
2023-04-09T05:42:45.919Z,100.0
2023-04-09T05:48:17.327Z,100.0
2023-04-09T05:53:49.061Z,100.0
2023-04-09T05:59:20.988Z,100.0
2023-04-09T06:04:53.058Z,100.0
2023-04-09T06:10:24.275Z,100.0
2023-04-09T06:15:56.798Z,100.0
2023-04-09T06:21:27.780Z,100.0
2023-04-09T06:26:59.456Z,100.0
2023-04-09T06:32:40.594Z,99.15
2023-04-09T06:38:03.401Z,99.17
2023-04-09T06:43:39.202Z,97.73
2023-04-09T06:49:11.291Z,96.1
2023-04-09T06:54:42.557Z,94.94
2023-04-09T07:00:14.233Z,93.79
2023-04-09T07:05:46.042Z,92.71
2023-04-09T07:11:17.732Z,91.76
2023-04-09T07:16:50.336Z,91.07
2023-04-09T07:22:21.178Z,88.11
2023-04-09T07:27:52.871Z,86.98
2023-04-09T07:33:24.689Z,83.52
2023-04-09T07:38:56.331Z,82.88
2023-04-09T07:44:32.649Z,83.26
2023-04-09T07:50:04.339Z,79.27
2023-04-09T07:55:36.001Z,78.41
2023-04-09T08:01:07.658Z,80.47
2023-04-09T08:06:40.786Z,79.07
2023-04-09T08:12:12.016Z,79.25
2023-04-09T08:17:43.073Z,82.05
2023-04-09T08:23:14.704Z,78.86
2023-04-09T08:28:46.365Z,77.25
2023-04-09T08:34:18.361Z,75.68
2023-04-09T08:39:50.210Z,67.36
2023-04-09T08:45:28.311Z,67.42
2023-04-09T08:51:00.088Z,70.85
2023-04-09T08:56:31.789Z,64.54
2023-04-09T09:02:03.932Z,67.34
2023-04-09T09:07:35.273Z,71.93
2023-04-09T09:13:06.946Z,69.43
2023-04-09T09:18:38.801Z,63.94
2023-04-09T09:24:10.587Z,64.14
2023-04-09T09:29:42.108Z,65.27
2023-04-09T09:35:13.909Z,67.06
2023-04-09T09:40:45.477Z,64.93
2023-04-09T09:46:21.906Z,65.45
2023-04-09T09:51:53.445Z,64.69
2023-04-09T09:57:25.467Z,66.63
2023-04-09T10:02:57.297Z,66.11
2023-04-09T10:08:28.603Z,65.6
2023-04-09T10:14:00.544Z,66.91
2023-04-09T10:19:32.053Z,68.09
2023-04-09T10:25:03.819Z,65.14
2023-04-09T10:30:35.566Z,65.05
2023-04-09T10:36:07.262Z,62.58
2023-04-09T10:41:39.040Z,64.34
2023-04-09T10:47:15.568Z,65.42
2023-04-09T10:52:46.949Z,62.79
2023-04-09T10:58:18.842Z,61.98
2023-04-09T11:03:50.365Z,61.64
2023-04-09T11:09:22.120Z,60.28
2023-04-09T11:14:53.806Z,58.29
2023-04-09T11:20:25.486Z,60.24
2023-04-09T11:25:57.290Z,59.94
2023-04-09T11:31:29.089Z,59.38
2023-04-09T11:37:00.720Z,59.89
2023-04-09T11:42:32.376Z,59.58
2023-04-09T11:48:08.616Z,60.16
2023-04-09T11:53:40.203Z,60.22
2023-04-09T11:59:12.004Z,60.08
2023-04-09T12:04:43.777Z,58.61
2023-04-09T12:10:15.396Z,61.77
2023-04-09T12:15:47.338Z,60.28
2023-04-09T12:21:19.711Z,59.77
2023-04-09T12:26:50.696Z,58.51
2023-04-09T12:32:22.398Z,57.08
2023-04-09T12:37:54.040Z,59.73
2023-04-09T12:43:25.870Z,57.55
2023-04-09T12:49:02.026Z,57.41
2023-04-09T12:54:34.090Z,56.86
2023-04-09T13:00:05.524Z,56.88
2023-04-09T13:05:37.006Z,57.24
2023-04-09T13:11:08.947Z,58.47
2023-04-09T13:16:41.279Z,56.44
2023-04-09T13:22:12.278Z,56.48
2023-04-09T13:27:44.052Z,57.0
2023-04-09T13:33:15.731Z,57.49
2023-04-09T13:38:47.849Z,56.53
2023-04-09T13:44:19.202Z,56.57
2023-04-09T13:49:55.491Z,57.13
2023-04-09T13:55:27.315Z,57.93
2023-04-09T14:01:02.438Z,57.0
2023-04-09T14:06:30.568Z,57.34
2023-04-09T14:12:02.341Z,57.81
2023-04-09T14:17:34.077Z,58.11
2023-04-09T14:23:05.832Z,58.51
2023-04-09T14:28:37.481Z,57.79
2023-04-09T14:34:09.212Z,58.65
2023-04-09T14:39:40.877Z,58.02
2023-04-09T14:45:13.289Z,56.68
2023-04-09T14:50:51.618Z,57.45
2023-04-09T14:56:22.547Z,57.61
2023-04-09T15:01:54.569Z,57.44
2023-04-09T15:07:26.072Z,57.7
2023-04-09T15:12:58.342Z,56.92
2023-04-09T15:18:29.378Z,56.38
2023-04-09T15:24:01.369Z,56.49
2023-04-09T15:29:32.912Z,54.83
2023-04-09T15:35:04.579Z,56.24
2023-04-09T15:40:36.742Z,56.95
2023-04-09T15:46:08.199Z,56.22
2023-04-09T15:51:46.291Z,56.39
2023-04-09T15:57:17.961Z,55.73
2023-04-09T16:02:49.705Z,55.66
2023-04-09T16:08:21.485Z,55.66
2023-04-09T16:13:53.260Z,56.19
2023-04-09T16:19:25.206Z,56.87
2023-04-09T16:24:56.582Z,58.29
2023-04-09T16:30:28.940Z,57.54
2023-04-09T16:36:00.423Z,56.95
2023-04-09T16:41:31.742Z,57.72
2023-04-09T16:47:03.476Z,57.55
2023-04-09T16:52:39.955Z,58.07
2023-04-09T16:58:11.348Z,57.64
2023-04-09T17:03:43.364Z,57.35
2023-04-09T17:09:14.866Z,58.55
2023-04-09T17:14:46.992Z,58.14
2023-04-09T17:20:18.222Z,57.53
2023-04-09T17:25:49.970Z,57.82
2023-04-09T17:31:21.772Z,58.01
2023-04-09T17:36:53.323Z,57.9
2023-04-09T17:42:25.239Z,57.79
2023-04-09T17:47:56.946Z,58.99
2023-04-09T17:53:35.065Z,58.25
2023-04-09T17:59:06.860Z,59.24
2023-04-09T18:04:38.980Z,58.65
2023-04-09T18:10:10.212Z,60.04
2023-04-09T18:15:42.021Z,59.78
2023-04-09T18:21:13.674Z,60.93
2023-04-09T18:26:45.428Z,60.25
2023-04-09T18:32:17.646Z,60.92
2023-04-09T18:37:49.289Z,60.55
2023-04-09T18:43:20.590Z,61.99
2023-04-09T18:48:53.436Z,61.78
2023-04-09T18:54:29.019Z,61.54
2023-04-09T19:00:00.763Z,61.39
2023-04-09T19:05:32.514Z,61.79
2023-04-09T19:11:04.281Z,61.97
2023-04-09T19:16:36.128Z,62.27
2023-04-09T19:22:07.971Z,62.71
2023-04-09T19:27:39.272Z,62.72
2023-04-09T19:33:11.542Z,63.9
2023-04-09T19:38:42.723Z,64.17
2023-04-09T19:44:14.586Z,64.69
2023-04-09T19:49:46.271Z,64.48
2023-04-09T19:55:22.394Z,64.72
2023-04-09T20:00:54.231Z,65.1
2023-04-09T20:06:25.882Z,65.06
2023-04-09T20:11:57.572Z,65.55
2023-04-09T20:17:30.420Z,65.33
2023-04-09T20:23:00.988Z,66.09
2023-04-09T20:28:32.836Z,66.28
2023-04-09T20:34:04.417Z,67.16
2023-04-09T20:39:36.278Z,66.54
2023-04-09T20:45:08.008Z,67.09
2023-04-09T20:50:39.740Z,67.09
2023-04-09T20:56:18.519Z,67.17
2023-04-09T21:01:50.054Z,67.59
2023-04-09T21:07:21.314Z,68.06
2023-04-09T21:12:53.071Z,68.09
2023-04-09T21:18:24.727Z,68.71
2023-04-09T21:23:56.507Z,68.53
2023-04-09T21:29:28.225Z,68.92
2023-04-09T21:35:07.636Z,68.87
2023-04-09T21:40:39.281Z,69.33
2023-04-09T21:46:10.509Z,69.68
2023-04-09T21:51:42.221Z,69.67
2023-04-09T21:57:18.505Z,69.77
2023-04-09T22:02:50.438Z,70.24
2023-04-09T22:08:21.907Z,70.4
2023-04-09T22:13:53.771Z,70.41
2023-04-09T22:19:25.349Z,70.97
2023-04-09T22:24:56.976Z,71.84
2023-04-09T22:30:28.780Z,71.92
2023-04-09T22:36:00.544Z,71.73
2023-04-09T22:41:32.136Z,72.29
2023-04-09T22:47:03.888Z,72.75
2023-04-09T22:52:35.581Z,73.06
2023-04-09T22:58:11.842Z,73.9
2023-04-09T23:03:43.559Z,74.28
2023-04-09T23:09:15.296Z,74.03
2023-04-09T23:14:49.677Z,74.25
2023-04-09T23:20:18.649Z,75.57
2023-04-09T23:25:50.513Z,75.32
2023-04-09T23:31:22.187Z,75.12
2023-04-09T23:36:53.756Z,76.03
2023-04-09T23:42:25.698Z,75.65
2023-04-09T23:47:57.304Z,75.72
2023-04-09T23:53:29.000Z,75.95
2023-04-09T23:59:07.250Z,75.8
